Time;durP1;ratioP1;P1;durP2;ratioP2;P2;SDS_P1;SDS_P2;PMS_P1;PMS_P2;Temp;Humidity;BMP_temperature;BMP_pressure;BME280_temperature;BME280_humidity;BME280_pressure;Samples;Min_cycle;Max_cycle;Signal;HPM_P1;HPM_P2
2022/03/08 00:00:37;;;;;;;;;44.25;35.25;;;;;5.63;42.45;101653.41;2449911;27;45223;-85
2022/03/08 00:01:47;;;;;;;;;43.50;36.00;;;;;5.62;42.15;101654.28;2451857;28;45397;-85
2022/03/08 00:02:58;;;;;;;;;43.25;35.50;;;;;5.61;42.16;101647.31;2451946;28;45416;-85
2022/03/08 00:04:09;;;;;;;;;49.50;38.25;;;;;5.59;42.30;101649.03;2449943;28;47011;-86
2022/03/08 00:05:19;;;;;;;;;46.25;36.25;;;;;5.59;42.21;101651.66;2451178;28;45480;-85
2022/03/08 00:06:29;;;;;;;;;49.25;37.50;;;;;5.58;42.45;101652.50;2450887;27;45577;-85
2022/03/08 00:07:40;;;;;;;;;47.25;36.75;;;;;5.57;42.78;101648.19;2450194;28;45667;-88
2022/03/08 00:08:51;;;;;;;;;44.75;37.00;;;;;5.56;42.56;101646.41;2451166;28;45344;-88
2022/03/08 00:10:01;;;;;;;;;46.50;37.75;;;;;5.55;42.36;101649.91;2450457;27;45342;-88
2022/03/08 00:11:12;;;;;;;;;51.50;39.00;;;;;5.55;42.54;101647.31;2451058;28;45402;-88
2022/03/08 00:12:22;;;;;;;;;48.00;37.25;;;;;5.53;42.77;101643.84;2451504;28;45224;-88
2022/03/08 00:13:33;;;;;;;;;43.50;34.50;;;;;5.53;42.68;101640.34;2448520;27;45626;-88
2022/03/08 00:14:43;;;;;;;;;42.50;36.00;;;;;5.50;42.82;101642.09;2442144;28;45230;-88
2022/03/08 00:15:53;;;;;;;;;48.75;38.75;;;;;5.50;42.65;101636.00;2448508;28;46489;-88
2022/03/08 00:17:04;;;;;;;;;45.75;37.25;;;;;5.49;42.81;101642.06;2450926;28;44775;-88
2022/03/08 00:18:17;;;;;;;;;42.50;35.50;;;;;5.48;42.92;101637.72;2443856;28;47398;-88
2022/03/08 00:19:27;;;;;;;;;46.75;37.00;;;;;5.47;43.01;101641.19;2444288;28;45335;-88
2022/03/08 00:20:38;;;;;;;;;45.75;38.50;;;;;5.45;42.86;101635.97;2443105;28;47426;-88
2022/03/08 00:21:48;;;;;;;;;44.00;36.50;;;;;5.44;42.81;101635.94;2450233;27;45319;-87
2022/03/08 00:22:59;;;;;;;;;42.50;36.50;;;;;5.43;42.82;101636.84;2453781;27;48084;-87
2022/03/08 00:24:09;;;;;;;;;48.50;38.00;;;;;5.42;43.00;101635.09;2454655;27;45302;-87
2022/03/08 00:25:20;;;;;;;;;44.00;35.00;;;;;5.42;43.38;101643.78;2448049;27;45341;-86
2022/03/08 00:26:30;;;;;;;;;43.25;37.25;;;;;5.39;42.94;101642.03;2450985;28;45241;-87
2022/03/08 00:27:46;;;;;;;;;43.00;31.75;;;;;5.38;42.85;101635.06;2450593;28;45477;-87
2022/03/08 00:28:57;;;;;;;;;40.75;37.00;;;;;5.38;42.73;101637.66;2450309;28;45419;-86
2022/03/08 00:30:08;;;;;;;;;46.50;36.75;;;;;5.36;42.99;101639.41;2451623;28;46648;-87
2022/03/08 00:31:18;;;;;;;;;46.00;37.75;;;;;5.36;42.99;101639.41;2445381;27;45350;-87
2022/03/08 00:32:29;;;;;;;;;49.50;38.50;;;;;5.35;42.95;101640.28;2463063;27;47231;-86
2022/03/08 00:33:39;;;;;;;;;49.50;37.25;;;;;5.34;43.33;101638.53;2465588;27;45508;-87
2022/03/08 00:34:49;;;;;;;;;45.50;38.00;;;;;5.33;43.72;101642.03;2450449;27;46205;-84
2022/03/08 00:36:00;;;;;;;;;47.50;36.25;;;;;5.32;43.62;101642.00;2450919;28;44688;-85
2022/03/08 00:37:11;;;;;;;;;47.25;38.00;;;;;5.31;43.44;101638.50;2449225;28;46136;-85
2022/03/08 00:38:21;;;;;;;;;51.00;38.75;;;;;5.27;43.58;101639.38;2451841;28;44619;-85
2022/03/08 00:39:32;;;;;;;;;45.25;36.25;;;;;5.27;43.43;101644.59;2450789;28;45974;-85
2022/03/08 00:40:42;;;;;;;;;45.75;37.25;;;;;5.25;43.57;101641.13;2451610;28;45211;-85
2022/03/08 00:41:53;;;;;;;;;42.25;36.50;;;;;5.22;43.58;101636.75;2451323;28;45274;-85
2022/03/08 00:43:03;;;;;;;;;46.25;37.25;;;;;5.22;43.77;101648.91;2451443;28;45266;-85
2022/03/08 00:44:14;;;;;;;;;39.25;33.75;;;;;5.18;43.30;101641.06;2449788;28;47105;-85
2022/03/08 00:45:24;;;;;;;;;48.00;38.50;;;;;5.20;43.62;101642.81;2450303;28;45228;-85
2022/03/08 00:46:34;;;;;;;;;44.75;36.75;;;;;5.16;43.54;101642.81;2451601;28;46321;-85
2022/03/08 00:47:45;;;;;;;;;48.25;39.25;;;;;5.14;44.06;101646.28;2451551;28;45285;-85
2022/03/08 00:48:55;;;;;;;;;50.75;39.00;;;;;5.14;43.79;101641.06;2449999;28;47276;-85
2022/03/08 00:50:08;;;;;;;;;45.75;39.25;;;;;5.14;43.47;101635.84;2443041;28;45299;-85
2022/03/08 00:51:19;;;;;;;;;46.00;38.00;;;;;5.10;43.45;101645.41;2450962;28;45437;-84
2022/03/08 00:52:29;;;;;;;;;39.50;35.25;;;;;5.09;43.45;101643.66;2450809;27;45317;-87
2022/03/08 00:53:40;;;;;;;;;45.50;37.00;;;;;5.08;43.62;101641.91;2450628;28;45546;-86
2022/03/08 00:54:50;;;;;;;;;50.25;39.00;;;;;5.07;43.74;101638.44;2451670;27;45212;-87
2022/03/08 00:56:00;;;;;;;;;51.75;38.25;;;;;5.06;43.84;101641.03;2450570;27;45554;-87
2022/03/08 00:57:11;;;;;;;;;48.75;36.75;;;;;5.03;43.46;101635.81;2451203;28;45145;-87
2022/03/08 00:58:21;;;;;;;;;42.00;36.75;;;;;4.99;43.59;101632.31;2451383;28;46515;-87
2022/03/08 00:59:32;;;;;;;;;46.50;36.75;;;;;4.99;43.41;101637.50;2451413;28;45399;-87
2022/03/08 01:00:42;;;;;;;;;43.25;36.75;;;;;4.97;43.77;101633.16;2442600;27;46289;-87
2022/03/08 01:01:53;;;;;;;;;51.50;39.00;;;;;4.95;43.97;101634.03;2445353;28;45642;-87
2022/03/08 01:03:03;;;;;;;;;48.25;36.75;;;;;4.92;44.26;101634.00;2450344;28;48054;-88
2022/03/08 01:04:13;;;;;;;;;45.50;36.00;;;;;4.92;44.05;101634.00;2450121;28;44757;-87
2022/03/08 01:05:24;;;;;;;;;42.00;35.00;;;;;4.92;44.00;101634.00;2445467;27;45169;-89
2022/03/08 01:06:34;;;;;;;;;45.75;35.50;;;;;4.90;44.19;101634.88;2451864;27;45175;-90
2022/03/08 01:07:45;;;;;;;;;44.25;36.50;;;;;4.88;43.82;101631.38;2457165;27;45294;-89
2022/03/08 01:08:56;;;;;;;;;44.00;34.50;;;;;4.87;44.30;101632.25;2445204;28;45161;-89
2022/03/08 01:10:09;;;;;;;;;45.50;37.00;;;;;4.86;44.57;101634.00;2437711;28;48156;-90
2022/03/08 01:11:20;;;;;;;;;49.25;37.50;;;;;4.84;43.86;101630.47;2450802;28;45196;-91
2022/03/08 01:12:30;;;;;;;;;40.75;34.25;;;;;4.84;44.24;101630.47;2450644;28;48549;-91
2022/03/08 01:13:41;;;;;;;;;44.00;37.00;;;;;4.82;44.00;101624.41;2448023;27;45374;-91
2022/03/08 01:14:52;;;;;;;;;44.25;36.50;;;;;4.82;44.26;101627.00;2460641;27;46930;-91
2022/03/08 01:16:03;;;;;;;;;47.75;37.25;;;;;4.81;44.26;101627.88;2466612;27;44697;-90
2022/03/08 01:17:13;;;;;;;;;46.00;36.50;;;;;4.80;44.49;101623.53;2455218;27;46886;-92
2022/03/08 01:18:23;;;;;;;;;49.00;38.00;;;;;4.78;44.57;101620.91;2468287;27;45295;-92
2022/03/08 01:19:34;;;;;;;;;41.50;34.75;;;;;4.76;44.18;101617.44;2457952;27;47167;-91
2022/03/08 01:20:44;;;;;;;;;44.00;32.25;;;;;4.74;44.16;101619.16;2450929;28;45236;-91
2022/03/08 01:21:54;;;;;;;;;48.25;37.25;;;;;4.75;44.21;101617.41;2449931;27;47163;-90
2022/03/08 01:23:05;;;;;;;;;42.50;36.75;;;;;4.72;44.32;101619.16;2433768;28;44731;-86
2022/03/08 01:24:16;;;;;;;;;46.00;36.25;;;;;4.71;43.93;101620.03;2448879;28;45420;-86
2022/03/08 01:25:26;;;;;;;;;47.25;35.50;;;;;4.68;43.93;101614.78;2444839;28;45205;-85
2022/03/08 01:26:36;;;;;;;;;51.25;37.00;;;;;4.69;44.39;101616.50;2449082;28;45645;-85
2022/03/08 01:27:49;;;;;;;;;44.50;36.00;;;;;4.66;44.45;101616.53;2450157;28;45221;-85
2022/03/08 01:29:00;;;;;;;;;44.50;37.25;;;;;4.67;44.61;101612.16;2449696;27;47601;-85
2022/03/08 01:30:14;;;;;;;;;50.50;38.50;;;;;4.68;44.73;101621.72;2443575;28;44734;-85
2022/03/08 01:31:24;;;;;;;;;46.00;37.25;;;;;4.67;44.85;101612.16;2450452;28;45436;-88
2022/03/08 01:32:34;;;;;;;;;40.75;35.50;;;;;4.67;44.60;101613.03;2449339;28;45323;-85
2022/03/08 01:33:45;;;;;;;;;48.75;39.25;;;;;4.67;44.82;101615.63;2442441;28;46999;-85
2022/03/08 01:34:55;;;;;;;;;44.75;37.25;;;;;4.65;44.76;101612.16;2449576;28;45251;-85
2022/03/08 01:36:06;;;;;;;;;39.50;33.75;;;;;4.66;44.53;101616.53;2444940;28;46207;-85
2022/03/08 01:37:16;;;;;;;;;52.25;40.25;;;;;4.66;44.59;101608.72;2449667;28;45283;-86
2022/03/08 01:38:27;;;;;;;;;52.75;38.75;;;;;4.67;45.01;101615.63;2441312;28;47148;-86
2022/03/08 01:39:38;;;;;;;;;41.25;34.50;;;;;4.65;45.08;101617.38;2440982;28;44828;-86
2022/03/08 01:40:48;;;;;;;;;45.50;35.25;;;;;4.66;44.82;101613.03;2449092;28;45366;-86
2022/03/08 01:41:59;;;;;;;;;47.00;36.50;;;;;4.66;44.74;101618.25;2450783;28;44610;-86
2022/03/08 01:43:09;;;;;;;;;45.00;39.25;;;;;4.65;44.46;101613.88;2443571;27;46230;-85
2022/03/08 01:44:20;;;;;;;;;47.50;38.50;;;;;4.64;45.04;101610.44;2449251;28;44689;-86
2022/03/08 01:45:32;;;;;;;;;43.75;36.50;;;;;4.63;45.06;101611.28;2450484;28;45454;-86
2022/03/08 01:46:42;;;;;;;;;49.00;38.25;;;;;4.64;44.48;101614.75;2450755;28;45309;-85
2022/03/08 01:47:53;;;;;;;;;49.00;40.50;;;;;4.61;44.02;101613.00;2440752;27;47029;-86
2022/03/08 01:49:05;;;;;;;;;54.75;40.75;;;;;4.60;44.72;101608.66;2447016;27;45370;-86
2022/03/08 01:50:16;;;;;;;;;41.75;36.25;;;;;4.62;44.67;101614.72;2446786;27;46465;-85
2022/03/08 01:51:26;;;;;;;;;51.25;40.00;;;;;4.59;44.50;101602.56;2441411;28;45223;-85
2022/03/08 01:52:38;;;;;;;;;53.75;40.75;;;;;4.57;45.02;101603.41;2450312;28;45687;-85
2022/03/08 01:53:49;;;;;;;;;44.00;35.75;;;;;4.58;44.50;101600.84;2450613;27;45377;-86
2022/03/08 01:54:59;;;;;;;;;43.25;35.75;;;;;4.59;44.97;101599.13;2450900;27;45447;-86
2022/03/08 01:56:10;;;;;;;;;50.50;38.75;;;;;4.59;45.07;101605.16;2450183;28;45469;-86
2022/03/08 01:57:23;;;;;;;;;43.75;35.50;;;;;4.58;45.20;101603.44;2449286;27;47131;-88
2022/03/08 01:58:35;;;;;;;;;51.00;38.25;;;;;4.58;44.69;101599.97;2447843;28;45276;-87
2022/03/08 01:59:46;;;;;;;;;41.00;33.00;;;;;4.57;45.04;101587.78;2462657;27;48120;-87
2022/03/08 02:00:56;;;;;;;;;48.25;35.00;;;;;4.59;44.85;101599.97;2457339;27;44650;-87
2022/03/08 02:02:08;;;;;;;;;43.25;37.50;;;;;4.61;44.39;101594.78;2443234;28;48137;-89
2022/03/08 02:03:19;;;;;;;;;51.00;35.00;;;;;4.60;44.68;101590.44;2449473;28;44804;-88
2022/03/08 02:04:29;;;;;;;;;39.50;34.25;;;;;4.60;45.08;101595.63;2449989;28;47224;-88
2022/03/08 02:05:39;;;;;;;;;50.75;37.50;;;;;4.61;45.05;101600.88;2435116;28;44896;-88
2022/03/08 02:06:50;;;;;;;;;47.50;39.75;;;;;4.60;45.03;101601.72;2451419;27;47350;-87
2022/03/08 02:08:00;;;;;;;;;44.50;37.75;;;;;4.60;44.88;101595.63;2455856;27;45330;-88
2022/03/08 02:09:12;;;;;;;;;55.00;40.00;;;;;4.61;44.90;101597.38;2443182;28;45423;-87
2022/03/08 02:10:23;;;;;;;;;46.50;39.50;;;;;4.60;44.88;101600.84;2448929;27;45398;-88
2022/03/08 02:11:33;;;;;;;;;40.00;36.25;;;;;4.59;44.82;101599.13;2456135;27;45409;-88
2022/03/08 02:12:43;;;;;;;;;54.00;40.50;;;;;4.58;44.59;101593.03;2449776;27;45326;-86
2022/03/08 02:13:55;;;;;;;;;50.75;37.50;;;;;4.58;45.19;101590.44;2449635;28;46440;-84
2022/03/08 02:15:13;;;;;;;;;48.75;38.50;;;;;4.60;45.20;101596.50;2451027;28;45293;-83
2022/03/08 02:16:23;;;;;;;;;47.00;37.75;;;;;4.58;44.84;101600.84;2446767;28;45293;-86
2022/03/08 02:17:34;;;;;;;;;43.50;35.75;;;;;4.57;44.57;101600.81;2450942;28;45179;-86
2022/03/08 02:18:44;;;;;;;;;45.75;36.50;;;;;4.58;45.04;101597.34;2449531;27;47015;-85
2022/03/08 02:19:56;;;;;;;;;47.25;37.25;;;;;4.56;45.19;101593.88;2449183;28;45243;-84
2022/03/08 02:21:08;;;;;;;;;45.25;36.25;;;;;4.56;44.69;101594.75;2444247;28;45279;-89
2022/03/08 02:22:18;;;;;;;;;46.25;38.50;;;;;4.58;44.47;101599.97;2450199;28;45272;-83
2022/03/08 02:23:29;;;;;;;;;48.75;37.75;;;;;4.54;45.16;101595.59;2447659;28;46278;-83
2022/03/08 02:24:39;;;;;;;;;50.75;39.00;;;;;4.55;45.28;101592.13;2448104;27;45234;-83
2022/03/08 02:25:49;;;;;;;;;45.25;38.00;;;;;4.55;44.66;101592.13;2446852;27;47063;-83
2022/03/08 02:27:00;;;;;;;;;46.50;37.50;;;;;4.54;44.82;101585.19;2454119;27;45448;-83
2022/03/08 02:28:11;;;;;;;;;52.25;39.50;;;;;4.54;44.98;101583.47;2449297;28;45301;-83
2022/03/08 02:29:21;;;;;;;;;51.00;38.50;;;;;4.54;44.61;101580.88;2449728;27;45697;-83
2022/03/08 02:30:32;;;;;;;;;38.75;34.00;;;;;4.57;45.19;101577.38;2450830;27;46677;-83
2022/03/08 02:31:43;;;;;;;;;44.25;37.00;;;;;4.58;45.08;101581.75;2449726;27;45211;-83
2022/03/08 02:32:54;;;;;;;;;42.75;36.00;;;;;4.58;44.72;101579.13;2449848;28;47898;-86
2022/03/08 02:34:05;;;;;;;;;45.25;38.00;;;;;4.56;45.25;101578.25;2443529;28;45320;-87
2022/03/08 02:35:19;;;;;;;;;48.50;39.00;;;;;4.57;44.74;101580.84;2444103;28;45598;-84
2022/03/08 02:36:30;;;;;;;;;48.00;36.75;;;;;4.58;44.37;101579.13;2450497;27;45468;-82
2022/03/08 02:37:43;;;;;;;;;47.25;39.75;;;;;4.56;45.00;101575.66;2449253;27;47665;-82
2022/03/08 02:38:54;;;;;;;;;45.75;36.25;;;;;4.56;44.85;101578.25;2439631;28;45347;-83
2022/03/08 02:40:07;;;;;;;;;45.75;37.50;;;;;4.56;44.96;101581.75;2442529;28;45306;-93
2022/03/08 02:41:17;;;;;;;;;45.50;37.25;;;;;4.56;44.83;101583.47;2452258;27;45539;-93
2022/03/08 02:42:28;;;;;;;;;47.00;36.00;;;;;4.55;45.21;101576.50;2451899;28;46327;-91
2022/03/08 02:43:38;;;;;;;;;39.25;35.50;;;;;4.53;45.07;101581.72;2449041;27;44829;-91
2022/03/08 02:44:48;;;;;;;;;46.25;37.75;;;;;4.52;44.54;101587.78;2443029;28;46486;-91
2022/03/08 02:45:59;;;;;;;;;40.00;33.75;;;;;4.52;44.76;101581.72;2451678;28;45355;-91
2022/03/08 02:47:09;;;;;;;;;54.00;41.25;;;;;4.50;44.46;101572.16;2444587;28;47167;-92
2022/03/08 02:48:20;;;;;;;;;50.25;39.00;;;;;4.48;45.24;101573.88;2444272;28;44718;-89
2022/03/08 02:49:31;;;;;;;;;43.50;38.25;;;;;4.49;45.00;101578.19;2444787;28;47062;-92
2022/03/08 02:50:41;;;;;;;;;51.50;39.75;;;;;4.46;45.61;101570.41;2456525;27;45419;-91
2022/03/08 02:51:51;;;;;;;;;43.25;36.00;;;;;4.46;44.96;101566.91;2452549;27;45677;-91
2022/03/08 02:53:02;;;;;;;;;42.25;33.00;;;;;4.45;45.12;101567.75;2451670;27;45315;-91
2022/03/08 02:54:13;;;;;;;;;44.25;39.00;;;;;4.47;45.34;101568.66;2444545;28;46157;-91
2022/03/08 02:55:28;;;;;;;;;51.00;40.00;;;;;4.45;45.61;101566.03;2451632;28;44751;-92
2022/03/08 02:56:39;;;;;;;;;54.75;39.75;;;;;4.46;45.22;101567.78;2451029;28;47165;-91
2022/03/08 02:57:50;;;;;;;;;52.75;38.50;;;;;4.46;45.12;101567.78;2435006;28;45371;-88
2022/03/08 02:59:01;;;;;;;;;44.00;38.50;;;;;4.46;44.95;101562.59;2444525;28;46996;-89
2022/03/08 03:00:14;;;;;;;;;49.50;38.25;;;;;4.44;45.41;101559.09;2449639;27;44842;-88
2022/03/08 03:01:25;;;;;;;;;51.75;40.50;;;;;4.44;45.14;101559.09;2448898;28;47919;-88
2022/03/08 03:02:36;;;;;;;;;51.25;38.50;;;;;4.44;45.57;101548.69;2452548;27;45314;-93
2022/03/08 03:03:47;;;;;;;;;44.00;37.25;;;;;4.42;45.59;101555.59;2451454;28;47170;-91
2022/03/08 03:04:57;;;;;;;;;46.00;38.25;;;;;4.43;45.23;101551.28;2464377;27;44639;-90
2022/03/08 03:06:07;;;;;;;;;52.50;40.00;;;;;4.41;45.92;101559.09;2458824;27;46908;-90
2022/03/08 03:07:21;;;;;;;;;46.25;34.75;;;;;4.41;45.66;101551.28;2451285;28;45308;-90
2022/03/08 03:08:32;;;;;;;;;55.00;42.00;;;;;4.42;45.75;101555.59;2451203;28;46175;-90
2022/03/08 03:09:42;;;;;;;;;52.25;40.00;;;;;4.39;45.63;101550.41;2442079;28;45477;-90
2022/03/08 03:10:53;;;;;;;;;44.00;36.00;;;;;4.40;45.68;101554.72;2450431;28;46221;-90
2022/03/08 03:12:04;;;;;;;;;48.25;39.00;;;;;4.38;45.96;101553.84;2451390;28;45491;-89
2022/03/08 03:13:14;;;;;;;;;52.50;39.50;;;;;4.37;45.35;101552.97;2443930;28;46732;-89
2022/03/08 03:14:24;;;;;;;;;48.50;38.75;;;;;4.35;45.52;101548.63;2444683;28;45250;-88
2022/03/08 03:15:35;;;;;;;;;49.00;37.75;;;;;4.33;45.86;101546.00;2450865;28;45520;-87
2022/03/08 03:16:45;;;;;;;;;50.00;38.00;;;;;4.33;45.63;101546.00;2451480;28;44749;-89
2022/03/08 03:17:56;;;;;;;;;48.50;38.00;;;;;4.32;45.94;101548.63;2451346;28;47134;-87
2022/03/08 03:19:07;;;;;;;;;47.75;37.25;;;;;4.31;45.72;101550.34;2444415;28;44680;-88
2022/03/08 03:20:20;;;;;;;;;37.75;31.75;;;;;4.28;46.34;101550.31;2449921;28;47493;-87
2022/03/08 03:21:30;;;;;;;;;43.25;37.25;;;;;4.28;45.90;101540.78;2442148;28;45403;-87
2022/03/08 03:22:41;;;;;;;;;49.75;40.25;;;;;4.28;45.87;101548.59;2457940;27;46886;-87
2022/03/08 03:23:51;;;;;;;;;49.50;39.75;;;;;4.26;45.49;101547.72;2455275;27;45270;-86
2022/03/08 03:25:03;;;;;;;;;47.00;37.75;;;;;4.25;45.96;101543.34;2443888;28;45270;-87
2022/03/08 03:26:14;;;;;;;;;51.25;38.75;;;;;4.25;45.86;101543.34;2450791;28;45169;-86
2022/03/08 03:27:24;;;;;;;;;55.50;40.00;;;;;4.24;45.78;101538.16;2444886;28;47083;-85
2022/03/08 03:28:34;;;;;;;;;48.75;38.00;;;;;4.23;45.96;101539.88;2443815;28;45311;-86
2022/03/08 03:29:45;;;;;;;;;51.50;37.50;;;;;4.21;45.46;101536.41;2452224;27;45250;-86
2022/03/08 03:30:55;;;;;;;;;44.25;38.25;;;;;4.21;45.97;101540.72;2450526;28;45177;-87
2022/03/08 03:32:06;;;;;;;;;52.00;41.00;;;;;4.22;46.25;101543.31;2451637;28;46347;-90
2022/03/08 03:33:16;;;;;;;;;49.00;37.75;;;;;4.19;45.57;101540.72;2451770;27;45224;-91
2022/03/08 03:34:27;;;;;;;;;47.75;36.75;;;;;4.17;45.67;101534.66;2448601;28;45572;-91
2022/03/08 03:35:37;;;;;;;;;52.25;40.25;;;;;4.16;45.74;101535.50;2450984;28;45735;-90
2022/03/08 03:36:47;;;;;;;;;50.25;38.25;;;;;4.16;46.10;101538.09;2453263;27;47124;-89
2022/03/08 03:37:58;;;;;;;;;45.00;35.50;;;;;4.14;46.09;101535.50;2448716;28;45327;-88
2022/03/08 03:39:08;;;;;;;;;46.50;39.50;;;;;4.13;46.48;101533.75;2446018;28;46588;-87
2022/03/08 03:40:19;;;;;;;;;51.25;38.00;;;;;4.14;45.66;101532.00;2451439;28;45252;-87
2022/03/08 03:41:29;;;;;;;;;48.75;39.75;;;;;4.14;46.34;101526.81;2451822;28;45304;-87
2022/03/08 03:42:40;;;;;;;;;52.50;38.50;;;;;4.14;45.82;101530.28;2451877;27;45406;-88
2022/03/08 03:43:50;;;;;;;;;52.75;40.25;;;;;4.11;46.49;101525.06;2449675;28;46381;-88
2022/03/08 03:45:00;;;;;;;;;45.25;38.25;;;;;4.11;46.34;101519.84;2451363;28;45284;-88
2022/03/08 03:46:11;;;;;;;;;46.00;39.50;;;;;4.13;46.18;101525.06;2451470;28;46334;-87
2022/03/08 03:47:21;;;;;;;;;51.75;39.75;;;;;4.11;46.37;101524.19;2451975;28;45240;-86
2022/03/08 03:48:32;;;;;;;;;48.25;38.00;;;;;4.11;46.10;101532.88;2451055;28;46434;-86
2022/03/08 03:49:43;;;;;;;;;45.00;37.75;;;;;4.10;46.56;101527.66;2451812;27;45221;-89
2022/03/08 03:50:53;;;;;;;;;51.25;41.75;;;;;4.09;46.64;101525.91;2448935;27;47458;-89
2022/03/08 03:52:04;;;;;;;;;52.75;40.00;;;;;4.10;45.77;101527.66;2451695;28;45292;-90
2022/03/08 03:53:15;;;;;;;;;55.00;40.25;;;;;4.08;46.22;101524.16;2450853;27;47305;-88
2022/03/08 03:54:25;;;;;;;;;52.00;40.50;;;;;4.08;46.26;101522.44;2442022;27;45161;-88
2022/03/08 03:55:36;;;;;;;;;52.50;41.50;;;;;4.08;46.33;101518.94;2447672;28;45730;-89
2022/03/08 03:56:46;;;;;;;;;45.25;37.75;;;;;4.07;46.19;101523.31;2451584;27;45187;-88
2022/03/08 03:57:57;;;;;;;;;57.50;39.75;;;;;4.07;46.46;101528.50;2450634;27;45344;-84
2022/03/08 03:59:07;;;;;;;;;47.50;37.25;;;;;4.06;46.07;101524.16;2445621;27;45399;-85
2022/03/08 04:00:17;;;;;;;;;52.75;38.00;;;;;4.05;46.41;101520.66;2450413;28;45547;-85
2022/03/08 04:01:28;;;;;;;;;52.50;40.25;;;;;4.07;46.53;101527.63;2451674;27;44673;-90
2022/03/08 04:02:39;;;;;;;;;51.75;40.75;;;;;4.07;46.31;101528.50;2442153;27;45370;-87
2022/03/08 04:03:49;;;;;;;;;47.50;38.75;;;;;4.05;46.55;101536.28;2447146;28;45218;-87
2022/03/08 04:04:59;;;;;;;;;54.50;39.75;;;;;4.04;46.65;101528.47;2450734;28;46375;-87
2022/03/08 04:06:10;;;;;;;;;53.25;41.25;;;;;4.04;46.14;101538.88;2451201;28;45342;-87
2022/03/08 04:07:20;;;;;;;;;53.00;41.75;;;;;4.03;46.30;101530.19;2447724;28;46343;-88
2022/03/08 04:08:30;;;;;;;;;46.50;37.25;;;;;4.03;46.16;101532.81;2465302;27;45282;-90
2022/03/08 04:09:41;;;;;;;;;53.25;42.75;;;;;3.99;46.72;101528.44;2457911;27;47250;-89
2022/03/08 04:10:51;;;;;;;;;45.00;38.25;;;;;3.98;46.72;101531.88;2462790;27;45350;-88
2022/03/08 04:12:02;;;;;;;;;53.00;42.00;;;;;3.96;46.38;101527.53;2465273;27;45267;-88
2022/03/08 04:13:12;;;;;;;;;51.25;39.25;;;;;3.95;46.32;101539.69;2451822;27;44775;-88
2022/03/08 04:14:23;;;;;;;;;47.50;38.25;;;;;3.93;46.61;101529.25;2450114;28;46079;-87
2022/03/08 04:15:33;;;;;;;;;52.50;41.00;;;;;3.90;46.64;101537.03;2450380;28;45485;-88
2022/03/08 04:16:43;;;;;;;;;50.75;37.25;;;;;3.88;46.35;101536.16;2449946;28;46419;-88
2022/03/08 04:17:54;;;;;;;;;51.00;40.00;;;;;3.88;46.79;101532.66;2451902;27;44589;-88
2022/03/08 04:19:05;;;;;;;;;51.75;38.75;;;;;3.84;47.29;101531.78;2450046;28;45298;-88
2022/03/08 04:20:15;;;;;;;;;50.75;40.25;;;;;3.83;47.02;101536.13;2450225;27;44544;-88
2022/03/08 04:21:26;;;;;;;;;46.25;37.75;;;;;3.83;47.12;101540.44;2441919;28;46275;-88
2022/03/08 04:22:36;;;;;;;;;49.50;39.25;;;;;3.80;47.60;101535.25;2445739;28;45489;-88
2022/03/08 04:23:47;;;;;;;;;52.50;41.25;;;;;3.78;47.12;101530.00;2435073;28;47864;-88
2022/03/08 04:24:57;;;;;;;;;50.50;37.50;;;;;3.77;46.87;101533.47;2441278;28;45253;-87
2022/03/08 04:26:08;;;;;;;;;53.25;39.25;;;;;3.74;46.99;101530.84;2447166;28;46445;-83
2022/03/08 04:27:18;;;;;;;;;47.00;35.50;;;;;3.75;47.26;101535.22;2442559;28;45507;-83
2022/03/08 04:28:28;;;;;;;;;47.75;37.75;;;;;3.73;47.49;101531.69;2463941;27;47203;-84
2022/03/08 04:29:39;;;;;;;;;47.00;37.00;;;;;3.72;46.56;101532.56;2465356;27;45393;-84
2022/03/08 04:30:49;;;;;;;;;53.50;41.75;;;;;3.70;47.13;101523.88;2450385;28;45334;-85
2022/03/08 04:32:00;;;;;;;;;51.50;38.25;;;;;3.72;47.08;101532.56;2451678;27;45233;-85
2022/03/08 04:33:10;;;;;;;;;54.75;42.75;;;;;3.68;47.22;101526.44;2450688;28;45300;-85
2022/03/08 04:34:20;;;;;;;;;56.00;41.25;;;;;3.69;46.68;101525.59;2450327;28;45521;-85
2022/03/08 04:35:31;;;;;;;;;49.50;39.00;;;;;3.70;47.04;101529.09;2442194;28;46910;-87
2022/03/08 04:36:41;;;;;;;;;57.75;40.50;;;;;3.69;47.36;101520.41;2448444;28;45415;-88
2022/03/08 04:37:52;;;;;;;;;45.75;38.75;;;;;3.68;47.05;101526.44;2446398;28;45362;-87
2022/03/08 04:39:03;;;;;;;;;53.75;41.25;;;;;3.68;47.30;101525.59;2441744;28;44744;-88
2022/03/08 04:40:14;;;;;;;;;46.50;38.00;;;;;3.65;47.79;101528.19;2444335;28;45573;-88
2022/03/08 04:41:24;;;;;;;;;52.75;38.50;;;;;3.62;46.91;101517.75;2451798;28;45274;-89
2022/03/08 04:42:35;;;;;;;;;53.25;40.50;;;;;3.63;47.66;101522.09;2450506;28;46218;-88
2022/03/08 04:43:46;;;;;;;;;50.00;40.00;;;;;3.59;47.81;101522.06;2439600;28;45218;-88
2022/03/08 04:44:56;;;;;;;;;49.75;40.75;;;;;3.57;47.18;101512.50;2448281;27;45524;-90
2022/03/08 04:46:07;;;;;;;;;44.75;36.25;;;;;3.56;47.73;101515.94;2450034;28;45217;-89
2022/03/08 04:47:17;;;;;;;;;48.25;38.75;;;;;3.55;46.99;101525.50;2450881;28;46130;-88
2022/03/08 04:48:27;;;;;;;;;48.00;37.25;;;;;3.53;47.70;101515.94;2450960;28;45305;-89
2022/03/08 04:49:38;;;;;;;;;49.75;38.00;;;;;3.53;47.75;101521.13;2451582;28;45407;-89
2022/03/08 04:50:48;;;;;;;;;50.25;41.00;;;;;3.49;48.15;101526.31;2450308;28;47023;-86
2022/03/08 04:51:59;;;;;;;;;41.50;35.25;;;;;3.49;48.04;101518.50;2463316;27;47139;-87
2022/03/08 04:53:09;;;;;;;;;49.25;39.00;;;;;3.46;48.08;101510.66;2465349;27;45332;-85
2022/03/08 04:54:19;;;;;;;;;47.00;40.25;;;;;3.47;47.71;101527.13;2450009;28;46068;-84
2022/03/08 04:55:30;;;;;;;;;48.50;40.00;;;;;3.47;47.38;101517.63;2450718;28;44816;-93
2022/03/08 04:56:40;;;;;;;;;53.75;39.00;;;;;3.46;47.71;101517.59;2441635;28;46918;-92
2022/03/08 04:57:50;;;;;;;;;54.50;40.00;;;;;3.45;47.08;101515.88;2434440;28;45256;-92
2022/03/08 04:59:01;;;;;;;;;43.00;36.75;;;;;3.44;48.03;101522.78;2450833;27;46834;-88
2022/03/08 05:00:13;;;;;;;;;52.50;40.00;;;;;3.45;47.93;101515.88;2449125;28;45276;-91
2022/03/08 05:01:23;;;;;;;;;52.25;39.00;;;;;3.44;47.90;101516.69;2443689;28;46982;-89
2022/03/08 05:02:34;;;;;;;;;53.00;39.00;;;;;3.43;47.86;101514.97;2443748;28;45333;-89
2022/03/08 05:03:45;;;;;;;;;51.25;40.00;;;;;3.44;48.12;101519.31;2450143;28;45785;-86
2022/03/08 05:04:56;;;;;;;;;51.50;40.75;;;;;3.41;48.16;101512.34;2451442;27;45168;-87
2022/03/08 05:06:06;;;;;;;;;42.50;36.50;;;;;3.42;46.96;101515.81;2451075;27;46226;-87
2022/03/08 05:07:17;;;;;;;;;49.75;40.75;;;;;3.41;47.77;101514.94;2450140;27;44772;-84
2022/03/08 05:08:28;;;;;;;;;39.50;32.75;;;;;3.40;47.16;101512.34;2442585;28;47272;-89
2022/03/08 05:09:38;;;;;;;;;51.50;40.25;;;;;3.39;48.14;101508.88;2441232;28;44720;-87
2022/03/08 05:10:49;;;;;;;;;50.00;37.75;;;;;3.40;47.70;101504.56;2454219;27;45412;-87
2022/03/08 05:11:59;;;;;;;;;50.50;40.50;;;;;3.38;47.45;101509.75;2443200;27;45323;-89
2022/03/08 05:13:09;;;;;;;;;49.75;38.00;;;;;3.36;47.10;101504.50;2465469;27;47319;-89
2022/03/08 05:14:20;;;;;;;;;54.75;41.50;;;;;3.35;47.85;101507.09;2465267;27;45258;-86
2022/03/08 05:15:30;;;;;;;;;57.50;42.75;;;;;3.36;47.58;101508.84;2449897;28;47167;-88
2022/03/08 05:16:41;;;;;;;;;48.75;38.25;;;;;3.34;47.34;101507.94;2444446;27;44760;-87
2022/03/08 05:17:51;;;;;;;;;60.00;44.75;;;;;3.34;48.04;101510.56;2443566;28;47449;-87
2022/03/08 05:19:01;;;;;;;;;52.00;40.50;;;;;3.32;47.77;101513.16;2450004;28;45445;-93
2022/03/08 05:20:12;;;;;;;;;45.00;39.00;;;;;3.33;47.54;101509.69;2439639;28;47182;-88
2022/03/08 05:21:23;;;;;;;;;48.50;40.75;;;;;3.34;48.22;101514.03;2433962;28;44687;-88
2022/03/08 05:22:33;;;;;;;;;59.00;42.00;;;;;3.34;48.38;101511.44;2450586;28;45387;-87
2022/03/08 05:23:43;;;;;;;;;55.75;42.00;;;;;3.34;48.39;101513.16;2449941;27;45437;-86
2022/03/08 05:24:54;;;;;;;;;50.25;39.00;;;;;3.33;48.35;101509.69;2449654;27;46248;-84